Carnival Splendor — 3EUS — position and weather

sailwx.info

Track history (hours):
 
Tides and Currents Weather Stations Pressure Air Temp Water Temp Dewpoint Dewpoint Depression Visibility Wind Speed Wind Dir Waves Ship Positions

Carnival Splendor

Last reported at 2018-Feb-18 10:56 UTC. Time now 2018-Feb-22 08:53 UTC.
Position N 30°44' W 116°59'.

Length 289 m; draft 8.3 m.

Type: Passenger vessel. MMSI: 372808000.

Date/timePositionNaut miles runAvg speedWind from/ knotsBaromVisibWave heightAir tempDewpointWater temp
2018-Feb-18 10:56N 30°44' W 116°59'920.1
2018-Feb-18 10:30N 30°53' W 117°01'1020.2
2018-Feb-18 10:00N 31°02' W 117°05'1020.1
2018-Feb-18 09:31N 31°12' W 117°09'1020.1
2018-Feb-18 09:00N 31°21' W 117°13'3120.3
2018-Feb-18 07:28N 31°50' W 117°26'1020.5
2018-Feb-18 07:00N 31°59' W 117°30'1020.7
2018-Feb-18 06:30N 32°09' W 117°34'1020.0
2018-Feb-18 06:00N 32°18' W 117°39'1020.2
2018-Feb-18 05:31N 32°28' W 117°43'1020.3
2018-Feb-18 05:00N 32°37' W 117°47'1020.2
2018-Feb-18 04:30N 32°47' W 117°50'1020.2
2018-Feb-18 04:00N 32°57' W 117°53'1020.5
2018-Feb-18 03:30N 33°06' W 117°58'1020.4
2018-Feb-18 03:00N 33°15' W 118°04'1020.6
2018-Feb-18 02:30N 33°25' W 118°08'1019.9
2018-Feb-18 02:00N 33°34' W 118°12'713.0
2018-Feb-18 01:30N 33°40' W 118°12'5 9.2
2018-Feb-18 01:00N 33°45' W 118°11'0 0.2
2018-Feb-18 00:29N 33°45' W 118°11'0 0.0
2018-Feb-17 23:59N 33°45' W 118°11'0 0.0
2018-Feb-17 23:28N 33°45' W 118°11'0 0.0
2018-Feb-17 22:58N 33°45' W 118°11'0 0.0
2018-Feb-17 22:28N 33°45' W 118°11'0 0.0
2018-Feb-17 21:58N 33°45' W 118°11'0 0.0
2018-Feb-17 21:27N 33°45' W 118°11'0 0.0
2018-Feb-17 21:00N 33°45' W 118°11'0 0.0
2018-Feb-17 20:30N 33°45' W 118°11'0 0.0
2018-Feb-17 20:00N 33°45' W 118°11'0 0.0
2018-Feb-17 19:30N 33°45' W 118°11'0 0.0
2018-Feb-17 18:59N 33°45' W 118°11'0 0.0
2018-Feb-17 18:29N 33°45' W 118°11'0 0.0
2018-Feb-17 17:59N 33°45' W 118°11'0 0.0
2018-Feb-17 17:29N 33°45' W 118°11'0 0.0
2018-Feb-17 16:59N 33°45' W 118°11'0 0.0
2018-Feb-17 16:25N 33°45' W 118°11'0 0.0
2018-Feb-17 15:58N 33°45' W 118°11'0 0.0
2018-Feb-17 15:28N 33°45' W 118°11'0 0.0
2018-Feb-17 14:58N 33°45' W 118°11'0 0.6
2018-Feb-17 14:30N 33°45' W 118°11'4 7.8
2018-Feb-17 14:00N 33°41' W 118°11'510.6
2018-Feb-17 13:30N 33°36' W 118°10'713.8
2018-Feb-17 13:00N 33°29' W 118°07'815.4
2018-Feb-17 12:30N 33°22' W 118°03'713.3
2018-Feb-17 12:00N 33°16' W 118°00'917.1
2018-Feb-17 11:30N 33°08' W 117°56'917.7
2018-Feb-17 11:00N 33°00' W 117°52'917.6
2018-Feb-17 10:31N 32°51' W 117°50'917.7
2018-Feb-17 10:00N 32°43' W 117°50'917.4
2018-Feb-17 09:30N 32°34' W 117°46'917.8
2018-Feb-17 09:00N 32°26' W 117°42'917.9
2018-Feb-17 08:30N 32°18' W 117°39'917.8
2018-Feb-17 08:00N 32°09' W 117°35'917.6
2018-Feb-17 07:28N 32°01' W 117°31'  
2018-Feb-11 05:42N 32°20' W 117°39'420.6
2018-Feb-11 05:30N 32°24' W 117°41'1020.4
2018-Feb-11 05:01N 32°34' W 117°45'1020.3
2018-Feb-11 04:30N 32°43' W 117°50'1020.4
2018-Feb-11 04:00N 32°53' W 117°52'1020.2
2018-Feb-11 03:30N 33°03' W 117°56'1020.1
2018-Feb-11 03:01N 33°12' W 118°01'1020.0
2018-Feb-11 02:30N 33°21' W 118°06'1418.7
2018-Feb-11 01:44N 33°34' W 118°13'312.9
2018-Feb-11 01:30N 33°37' W 118°13'611.5
2018-Feb-11 01:00N 33°43' W 118°11'2 4.1
2018-Feb-11 00:26N 33°45' W 118°11'0 0.2
2018-Feb-10 23:58N 33°45' W 118°11'0 0.0
2018-Feb-10 23:28N 33°45' W 118°11'0 0.0
2018-Feb-10 22:58N 33°45' W 118°11'0 0.0
2018-Feb-10 22:28N 33°45' W 118°11'0 0.0
2018-Feb-10 22:01N 33°45' W 118°11'0 0.0
2018-Feb-10 21:30N 33°45' W 118°11'0 0.0
2018-Feb-10 21:00N 33°45' W 118°11'0 0.0
2018-Feb-10 20:30N 33°45' W 118°11'0 0.0
2018-Feb-10 20:00N 33°45' W 118°11'0 0.0
2018-Feb-10 19:29N 33°45' W 118°11'0 0.0
2018-Feb-10 18:59N 33°45' W 118°11'0 0.2
2018-Feb-10 18:29N 33°45' W 118°11'0 0.0
2018-Feb-10 17:59N 33°45' W 118°11'0 0.0
2018-Feb-10 17:29N 33°45' W 118°11'0 0.0
2018-Feb-10 16:58N 33°45' W 118°11'0 0.0
2018-Feb-10 16:28N 33°45' W 118°11'0 0.0
2018-Feb-10 15:58N 33°45' W 118°11'0 0.0
2018-Feb-10 15:28N 33°45' W 118°11'0 0.0
2018-Feb-10 15:00N 33°45' W 118°11'0 0.7
2018-Feb-10 14:30N 33°45' W 118°11'4 7.0
2018-Feb-10 14:00N 33°41' W 118°11'510.9
2018-Feb-10 13:30N 33°36' W 118°10'2412.9
2018-Feb-10 11:41N 33°14' W 117°59'317.4
2018-Feb-10 11:30N 33°11' W 117°57'918.0
2018-Feb-10 11:00N 33°03' W 117°53'918.0
2018-Feb-10 10:30N 32°54' W 117°51'918.1
2018-Feb-10 10:00N 32°46' W 117°49'918.0
2018-Feb-10 09:30N 32°37' W 117°47'917.9
2018-Feb-10 09:00N 32°28' W 117°43'917.7
2018-Feb-10 08:30N 32°20' W 117°40'917.6
2018-Feb-10 08:00N 32°12' W 117°36'5017.8
2018-Feb-10 05:11N 31°24' W 117°16'417.7
2018-Feb-10 04:56N 31°20' W 117°14'1117.7
2018-Feb-10 04:20N 31°10' W 117°10'617.7
2018-Feb-10 04:00N 31°05' W 117°07'3317.6
2018-Feb-10 02:06N 30°33' W 116°54'617.6
2018-Feb-10 01:45N 30°27' W 116°52'2119.8
2018-Feb-10 00:41N 30°08' W 116°44'419.6
2018-Feb-10 00:30N 30°04' W 116°42'1019.6
2018-Feb-10 00:00N 29°55' W 116°38'1019.5
2018-Feb-09 23:29N 29°46' W 116°34'919.5
2018-Feb-09 23:00N 29°37' W 116°31'619.6
2018-Feb-09 22:41N 29°31' W 116°28'  
Track history (hours):
 
Tides and Currents Weather Stations Pressure Air Temp Water Temp Dewpoint Dewpoint Depression Visibility Wind Speed Wind Dir Waves Ship Positions

Carnival Splendor

Last reported at 2018-Feb-18 10:56 UTC. Time now 2018-Feb-22 08:53 UTC.
Position N 30°44' W 116°59'.

Length 289 m; draft 8.3 m.

Type: Passenger vessel. MMSI: 372808000.

Date/timePositionNaut miles runAvg speedWind from/ knotsBaromVisibWave heightAir tempDewpointWater temp
2018-Feb-18 10:56N 30°44' W 116°59'920.1
2018-Feb-18 10:30N 30°53' W 117°01'1020.2
2018-Feb-18 10:00N 31°02' W 117°05'1020.1
2018-Feb-18 09:31N 31°12' W 117°09'1020.1
2018-Feb-18 09:00N 31°21' W 117°13'3120.3
2018-Feb-18 07:28N 31°50' W 117°26'1020.5
2018-Feb-18 07:00N 31°59' W 117°30'1020.7
2018-Feb-18 06:30N 32°09' W 117°34'1020.0
2018-Feb-18 06:00N 32°18' W 117°39'1020.2
2018-Feb-18 05:31N 32°28' W 117°43'1020.3
2018-Feb-18 05:00N 32°37' W 117°47'1020.2
2018-Feb-18 04:30N 32°47' W 117°50'1020.2
2018-Feb-18 04:00N 32°57' W 117°53'1020.5
2018-Feb-18 03:30N 33°06' W 117°58'1020.4
2018-Feb-18 03:00N 33°15' W 118°04'1020.6
2018-Feb-18 02:30N 33°25' W 118°08'1019.9
2018-Feb-18 02:00N 33°34' W 118°12'713.0
2018-Feb-18 01:30N 33°40' W 118°12'5 9.2
2018-Feb-18 01:00N 33°45' W 118°11'0 0.2
2018-Feb-18 00:29N 33°45' W 118°11'0 0.0
2018-Feb-17 23:59N 33°45' W 118°11'0 0.0
2018-Feb-17 23:28N 33°45' W 118°11'0 0.0
2018-Feb-17 22:58N 33°45' W 118°11'0 0.0
2018-Feb-17 22:28N 33°45' W 118°11'0 0.0
2018-Feb-17 21:58N 33°45' W 118°11'0 0.0
2018-Feb-17 21:27N 33°45' W 118°11'0 0.0
2018-Feb-17 21:00N 33°45' W 118°11'0 0.0
2018-Feb-17 20:30N 33°45' W 118°11'0 0.0
2018-Feb-17 20:00N 33°45' W 118°11'0 0.0
2018-Feb-17 19:30N 33°45' W 118°11'0 0.0
2018-Feb-17 18:59N 33°45' W 118°11'0 0.0
2018-Feb-17 18:29N 33°45' W 118°11'0 0.0
2018-Feb-17 17:59N 33°45' W 118°11'0 0.0
2018-Feb-17 17:29N 33°45' W 118°11'0 0.0
2018-Feb-17 16:59N 33°45' W 118°11'0 0.0
2018-Feb-17 16:25N 33°45' W 118°11'0 0.0
2018-Feb-17 15:58N 33°45' W 118°11'0 0.0
2018-Feb-17 15:28N 33°45' W 118°11'0 0.0
2018-Feb-17 14:58N 33°45' W 118°11'0 0.6
2018-Feb-17 14:30N 33°45' W 118°11'4 7.8
2018-Feb-17 14:00N 33°41' W 118°11'510.6
2018-Feb-17 13:30N 33°36' W 118°10'713.8
2018-Feb-17 13:00N 33°29' W 118°07'815.4
2018-Feb-17 12:30N 33°22' W 118°03'713.3
2018-Feb-17 12:00N 33°16' W 118°00'917.1
2018-Feb-17 11:30N 33°08' W 117°56'917.7
2018-Feb-17 11:00N 33°00' W 117°52'917.6
2018-Feb-17 10:31N 32°51' W 117°50'917.7
2018-Feb-17 10:00N 32°43' W 117°50'917.4
2018-Feb-17 09:30N 32°34' W 117°46'917.8
2018-Feb-17 09:00N 32°26' W 117°42'917.9
2018-Feb-17 08:30N 32°18' W 117°39'917.8
2018-Feb-17 08:00N 32°09' W 117°35'917.6
2018-Feb-17 07:28N 32°01' W 117°31'  
2018-Feb-11 05:42N 32°20' W 117°39'420.6
2018-Feb-11 05:30N 32°24' W 117°41'1020.4
2018-Feb-11 05:01N 32°34' W 117°45'1020.3
2018-Feb-11 04:30N 32°43' W 117°50'1020.4
2018-Feb-11 04:00N 32°53' W 117°52'1020.2
2018-Feb-11 03:30N 33°03' W 117°56'1020.1
2018-Feb-11 03:01N 33°12' W 118°01'1020.0
2018-Feb-11 02:30N 33°21' W 118°06'1418.7
2018-Feb-11 01:44N 33°34' W 118°13'312.9
2018-Feb-11 01:30N 33°37' W 118°13'611.5
2018-Feb-11 01:00N 33°43' W 118°11'2 4.1
2018-Feb-11 00:26N 33°45' W 118°11'0 0.2
2018-Feb-10 23:58N 33°45' W 118°11'0 0.0
2018-Feb-10 23:28N 33°45' W 118°11'0 0.0
2018-Feb-10 22:58N 33°45' W 118°11'0 0.0
2018-Feb-10 22:28N 33°45' W 118°11'0 0.0
2018-Feb-10 22:01N 33°45' W 118°11'0 0.0
2018-Feb-10 21:30N 33°45' W 118°11'0 0.0
2018-Feb-10 21:00N 33°45' W 118°11'0 0.0
2018-Feb-10 20:30N 33°45' W 118°11'0 0.0
2018-Feb-10 20:00N 33°45' W 118°11'0 0.0
2018-Feb-10 19:29N 33°45' W 118°11'0 0.0
2018-Feb-10 18:59N 33°45' W 118°11'0 0.2
2018-Feb-10 18:29N 33°45' W 118°11'0 0.0
2018-Feb-10 17:59N 33°45' W 118°11'0 0.0
2018-Feb-10 17:29N 33°45' W 118°11'0 0.0
2018-Feb-10 16:58N 33°45' W 118°11'0 0.0
2018-Feb-10 16:28N 33°45' W 118°11'0 0.0
2018-Feb-10 15:58N 33°45' W 118°11'0 0.0
2018-Feb-10 15:28N 33°45' W 118°11'0 0.0
2018-Feb-10 15:00N 33°45' W 118°11'0 0.7
2018-Feb-10 14:30N 33°45' W 118°11'4 7.0
2018-Feb-10 14:00N 33°41' W 118°11'510.9
2018-Feb-10 13:30N 33°36' W 118°10'2412.9
2018-Feb-10 11:41N 33°14' W 117°59'317.4
2018-Feb-10 11:30N 33°11' W 117°57'918.0
2018-Feb-10 11:00N 33°03' W 117°53'918.0
2018-Feb-10 10:30N 32°54' W 117°51'918.1
2018-Feb-10 10:00N 32°46' W 117°49'918.0
2018-Feb-10 09:30N 32°37' W 117°47'917.9
2018-Feb-10 09:00N 32°28' W 117°43'917.7
2018-Feb-10 08:30N 32°20' W 117°40'917.6
2018-Feb-10 08:00N 32°12' W 117°36'5017.8
2018-Feb-10 05:11N 31°24' W 117°16'417.7
2018-Feb-10 04:56N 31°20' W 117°14'1117.7
2018-Feb-10 04:20N 31°10' W 117°10'617.7
2018-Feb-10 04:00N 31°05' W 117°07'3317.6
2018-Feb-10 02:06N 30°33' W 116°54'617.6
2018-Feb-10 01:45N 30°27' W 116°52'2119.8
2018-Feb-10 00:41N 30°08' W 116°44'419.6
2018-Feb-10 00:30N 30°04' W 116°42'1019.6
2018-Feb-10 00:00N 29°55' W 116°38'1019.5
2018-Feb-09 23:29N 29°46' W 116°34'919.5
2018-Feb-09 23:00N 29°37' W 116°31'619.6
2018-Feb-09 22:41N 29°31' W 116°28'  

Dump ship's entire track history